Time;durP1;ratioP1;P1;durP2;ratioP2;P2;SDS_P1;SDS_P2;PMS_P1;PMS_P2;Temp;Humidity;BMP_temperature;BMP_pressure;BME280_temperature;BME280_humidity;BME280_pressure;Samples;Min_cycle;Max_cycle;Signal;HPM_P1;HPM_P2
2022/03/16 00:00:11;;;;;;;14.23;7.55;;;4.40;99.90;;;;;;5051659;28;20476;-52
2022/03/16 00:02:37;;;;;;;24.75;8.98;;;4.50;99.90;;;;;;5051540;28;20075;-52
2022/03/16 00:05:03;;;;;;;13.43;7.32;;;4.50;99.90;;;;;;5052773;28;20029;-50
2022/03/16 00:07:29;;;;;;;33.92;9.95;;;4.50;99.90;;;;;;5051358;28;20033;-53
2022/03/16 00:09:54;;;;;;;16.42;8.35;;;4.40;99.90;;;;;;5051488;28;20029;-52
2022/03/16 00:12:20;;;;;;;16.70;8.25;;;4.40;99.90;;;;;;5052720;28;20037;-51
2022/03/16 00:14:46;;;;;;;23.27;7.40;;;4.40;99.90;;;;;;5052360;28;20064;-51
2022/03/16 00:17:12;;;;;;;23.13;8.80;;;4.50;99.90;;;;;;5055601;28;20126;-51
2022/03/16 00:19:39;;;;;;;16.13;7.60;;;4.30;99.90;;;;;;5056522;28;20029;-52
2022/03/16 00:22:05;;;;;;;15.60;7.70;;;4.20;99.90;;;;;;5055522;28;20032;-51
2022/03/16 00:24:31;;;;;;;16.60;7.40;;;4.20;99.90;;;;;;5056318;28;20021;-52
2022/03/16 00:26:57;;;;;;;29.52;8.52;;;4.30;99.90;;;;;;5055073;28;20032;-52
2022/03/16 00:29:23;;;;;;;16.95;8.70;;;4.30;99.90;;;;;;5056838;28;20025;-51
2022/03/16 00:31:48;;;;;;;18.13;8.63;;;4.30;99.90;;;;;;5056294;28;20024;-51
2022/03/16 00:34:14;;;;;;;15.88;7.60;;;4.30;99.90;;;;;;5054924;28;20021;-57
2022/03/16 00:36:40;;;;;;;38.33;10.13;;;4.30;99.90;;;;;;5056408;28;20031;-50
2022/03/16 00:39:05;;;;;;;25.77;10.43;;;4.40;99.90;;;;;;5055685;28;20503;-54
2022/03/16 00:41:33;;;;;;;20.50;9.13;;;4.30;99.90;;;;;;5056096;28;20064;-51
2022/03/16 00:43:59;;;;;;;19.33;10.65;;;4.30;99.90;;;;;;5056031;28;20052;-54
2022/03/16 00:46:25;;;;;;;24.23;9.60;;;4.50;99.90;;;;;;5056053;28;20447;-54
2022/03/16 00:48:50;;;;;;;22.75;9.65;;;4.50;99.90;;;;;;5056203;28;20463;-51
2022/03/16 00:51:16;;;;;;;17.98;8.98;;;4.50;99.90;;;;;;5055974;28;20052;-57
2022/03/16 00:53:42;;;;;;;18.75;9.70;;;4.60;99.90;;;;;;5054619;28;20051;-51
2022/03/16 00:56:08;;;;;;;24.42;10.18;;;4.50;99.90;;;;;;5056046;28;20100;-54
2022/03/16 00:58:34;;;;;;;21.80;8.95;;;4.60;99.90;;;;;;5055377;28;20036;-55
2022/03/16 01:01:01;;;;;;;19.25;8.98;;;4.60;99.90;;;;;;5054628;28;20036;-53
2022/03/16 01:03:28;;;;;;;27.23;9.15;;;4.60;99.90;;;;;;5055570;28;20017;-53
2022/03/16 01:05:53;;;;;;;18.75;8.68;;;4.60;99.90;;;;;;5055466;28;20068;-56
2022/03/16 01:08:19;;;;;;;54.67;11.63;;;4.60;99.90;;;;;;5054668;28;20060;-57
2022/03/16 01:10:45;;;;;;;17.77;9.27;;;4.70;99.90;;;;;;5054630;28;20021;-55
2022/03/16 01:13:11;;;;;;;40.22;11.60;;;4.70;99.90;;;;;;5054538;28;20021;-56
2022/03/16 01:15:36;;;;;;;76.72;14.52;;;4.80;99.90;;;;;;5055391;28;20028;-55
2022/03/16 01:18:02;;;;;;;115.63;15.18;;;4.60;99.90;;;;;;5054268;28;20024;-52
2022/03/16 01:20:28;;;;;;;76.22;12.43;;;4.50;99.90;;;;;;5055340;28;20016;-52
2022/03/16 01:22:53;;;;;;;24.67;10.20;;;4.40;99.90;;;;;;5054144;28;20079;-52
2022/03/16 01:25:19;;;;;;;28.67;9.77;;;4.60;99.90;;;;;;5054884;28;20033;-52
2022/03/16 01:27:45;;;;;;;375.92;42.50;;;4.60;99.90;;;;;;5053930;28;20039;-51
2022/03/16 01:30:13;;;;;;;119.88;19.92;;;4.60;99.90;;;;;;5053944;28;20025;-50
2022/03/16 01:32:39;;;;;;;145.80;18.45;;;4.60;99.90;;;;;;5054103;28;20028;-54
2022/03/16 01:35:06;;;;;;;202.05;24.92;;;4.60;99.90;;;;;;5055454;28;20028;-54
2022/03/16 01:37:32;;;;;;;95.47;17.63;;;4.60;99.90;;;;;;5053779;28;20025;-51
2022/03/16 01:39:57;;;;;;;80.30;13.60;;;4.40;99.90;;;;;;5053833;28;20058;-53
2022/03/16 01:42:23;;;;;;;169.95;22.48;;;4.40;99.90;;;;;;5055235;28;20029;-51
2022/03/16 01:44:50;;;;;;;103.97;15.85;;;4.40;99.90;;;;;;5054756;28;20025;-50
2022/03/16 01:47:17;;;;;;;112.20;15.40;;;4.30;99.90;;;;;;5053496;28;20029;-52
2022/03/16 01:49:44;;;;;;;83.65;13.88;;;4.30;99.90;;;;;;5055141;28;20060;-52
2022/03/16 01:52:13;;;;;;;55.83;13.60;;;4.20;99.90;;;;;;5053569;28;20092;-53
2022/03/16 01:54:40;;;;;;;149.40;17.48;;;4.30;99.90;;;;;;5053758;28;20017;-51
2022/03/16 01:57:07;;;;;;;24.98;10.55;;;4.20;99.90;;;;;;5054669;28;20104;-50
2022/03/16 01:59:32;;;;;;;25.23;9.15;;;4.20;99.90;;;;;;5053549;28;20067;-53
2022/03/16 02:01:58;;;;;;;156.55;21.33;;;4.30;99.90;;;;;;5053620;28;20021;-50
2022/03/16 02:04:24;;;;;;;186.88;24.80;;;4.30;99.90;;;;;;5054527;28;20035;-50
2022/03/16 02:06:50;;;;;;;119.75;17.13;;;4.20;99.90;;;;;;5054587;28;20025;-50
2022/03/16 02:09:16;;;;;;;48.42;10.95;;;4.10;99.90;;;;;;5053467;28;20021;-52
2022/03/16 02:11:41;;;;;;;40.95;10.13;;;4.20;99.90;;;;;;5053122;28;20021;-51
2022/03/16 02:14:07;;;;;;;26.00;10.27;;;4.10;99.90;;;;;;5054332;28;20028;-50
2022/03/16 02:16:35;;;;;;;25.40;11.07;;;4.30;99.90;;;;;;5054212;28;20032;-50
2022/03/16 02:19:01;;;;;;;89.32;15.07;;;4.40;99.90;;;;;;5054267;28;20029;-50
2022/03/16 02:21:34;;;;;;;25.58;11.27;;;4.60;99.90;;;;;;5054594;28;20047;-51
2022/03/16 02:24:01;;;;;;;20.00;9.10;;;4.60;99.90;;;;;;5052883;28;20037;-50
2022/03/16 02:26:27;;;;;;;22.63;9.30;;;4.70;99.90;;;;;;5054512;28;20095;-54
2022/03/16 02:28:53;;;;;;;34.50;9.63;;;4.90;99.90;;;;;;5054107;28;20060;-53
2022/03/16 02:31:20;;;;;;;36.45;8.38;;;4.90;99.90;;;;;;5053996;28;20024;-51
2022/03/16 02:33:46;;;;;;;23.95;9.63;;;4.90;99.90;;;;;;5052746;28;20543;-56
2022/03/16 02:36:11;;;;;;;22.20;10.40;;;4.90;99.90;;;;;;5052584;28;20112;-55
2022/03/16 02:38:38;;;;;;;29.98;9.48;;;4.90;99.90;;;;;;5051990;28;20059;-52
2022/03/16 02:41:03;;;;;;;26.58;9.30;;;4.90;99.90;;;;;;5052579;28;20112;-54
2022/03/16 02:43:29;;;;;;;23.15;9.02;;;4.90;99.90;;;;;;5052599;28;20112;-50
2022/03/16 02:45:55;;;;;;;33.42;10.02;;;4.90;99.90;;;;;;5052796;28;20079;-52
2022/03/16 02:48:22;;;;;;;34.30;10.82;;;4.90;99.90;;;;;;5053766;28;20025;-53
2022/03/16 02:50:48;;;;;;;43.95;10.18;;;5.00;99.90;;;;;;5052760;28;20021;-53
2022/03/16 02:53:15;;;;;;;23.25;10.13;;;5.00;99.90;;;;;;5053381;28;20021;-56
2022/03/16 02:55:41;;;;;;;26.40;10.35;;;5.00;99.90;;;;;;5053893;28;20014;-51
2022/03/16 02:58:07;;;;;;;25.90;9.63;;;5.00;99.90;;;;;;5053848;28;20040;-51
2022/03/16 03:00:34;;;;;;;32.97;11.52;;;5.10;99.90;;;;;;5052856;28;20025;-52
2022/03/16 03:02:59;;;;;;;85.22;17.33;;;5.10;99.90;;;;;;5052567;28;20115;-55
2022/03/16 03:05:25;;;;;;;36.10;10.48;;;5.10;99.90;;;;;;5052552;28;20056;-53
2022/03/16 03:07:51;;;;;;;148.57;18.75;;;5.10;99.90;;;;;;5052141;28;20033;-53
2022/03/16 03:10:17;;;;;;;30.15;10.93;;;5.00;99.90;;;;;;5053423;28;20021;-52
2022/03/16 03:12:43;;;;;;;64.38;13.45;;;4.90;99.90;;;;;;5053359;28;20029;-53
2022/03/16 03:15:11;;;;;;;37.30;11.73;;;4.90;99.90;;;;;;5053330;28;20017;-51
2022/03/16 03:17:37;;;;;;;51.00;15.20;;;5.00;99.90;;;;;;5052295;28;20029;-56
2022/03/16 03:20:03;;;;;;;26.88;10.68;;;5.00;99.90;;;;;;5052060;28;20059;-55
2022/03/16 03:22:29;;;;;;;24.83;9.55;;;5.20;99.90;;;;;;5053658;28;20123;-55
2022/03/16 03:24:56;;;;;;;55.40;11.35;;;5.20;99.90;;;;;;5053136;28;20112;-57
2022/03/16 03:27:22;;;;;;;19.88;9.30;;;5.20;99.90;;;;;;5053175;28;20041;-53
2022/03/16 03:29:48;;;;;;;26.17;10.68;;;5.20;99.90;;;;;;5053164;28;20053;-50
2022/03/16 03:32:13;;;;;;;21.67;9.02;;;5.20;99.90;;;;;;5053122;28;20087;-50
2022/03/16 03:34:39;;;;;;;42.88;11.05;;;5.20;99.90;;;;;;5051937;28;20017;-53
2022/03/16 03:37:06;;;;;;;36.67;10.52;;;5.20;99.90;;;;;;5052134;28;20086;-51
2022/03/16 03:39:32;;;;;;;32.20;16.15;;;5.10;99.90;;;;;;5053442;28;20475;-56
2022/03/16 03:41:58;;;;;;;57.47;15.18;;;5.10;99.90;;;;;;5053203;28;20029;-50
2022/03/16 03:44:24;;;;;;;17.67;8.60;;;5.10;99.90;;;;;;5052688;28;20116;-53
2022/03/16 03:46:49;;;;;;;27.38;10.45;;;5.10;99.90;;;;;;5052780;28;20025;-51
2022/03/16 03:49:15;;;;;;;30.05;11.25;;;5.00;99.90;;;;;;5054486;28;20021;-55
2022/03/16 03:51:40;;;;;;;58.28;20.23;;;5.10;99.90;;;;;;5057018;28;20155;-50
2022/03/16 03:54:06;;;;;;;82.75;18.65;;;5.10;99.90;;;;;;5057091;28;20028;-50
2022/03/16 03:56:32;;;;;;;149.95;19.25;;;5.10;99.90;;;;;;5055754;28;20032;-53
2022/03/16 03:58:57;;;;;;;47.28;12.65;;;5.00;99.90;;;;;;5056005;28;20031;-50
2022/03/16 04:01:23;;;;;;;21.90;9.68;;;5.00;99.90;;;;;;5056934;28;20040;-56
2022/03/16 04:03:50;;;;;;;27.23;10.57;;;5.10;99.90;;;;;;5057030;28;20078;-53
2022/03/16 04:06:16;;;;;;;25.65;10.63;;;5.00;99.90;;;;;;5055385;28;20131;-53
2022/03/16 04:08:43;;;;;;;46.58;11.75;;;5.00;99.90;;;;;;5055491;28;20108;-53
2022/03/16 04:11:10;;;;;;;71.18;11.93;;;5.00;99.90;;;;;;5055418;28;20048;-50
2022/03/16 04:13:35;;;;;;;31.60;9.85;;;5.00;99.90;;;;;;5055477;28;20112;-51
2022/03/16 04:16:01;;;;;;;59.15;13.00;;;4.90;99.90;;;;;;5056590;28;20059;-54
2022/03/16 04:18:27;;;;;;;35.42;10.10;;;4.90;99.90;;;;;;5057085;28;20025;-51
2022/03/16 04:20:53;;;;;;;32.75;11.45;;;4.80;99.90;;;;;;5056335;28;20036;-50
2022/03/16 04:23:19;;;;;;;42.38;14.18;;;4.90;99.90;;;;;;5055201;28;20029;-53
2022/03/16 04:25:45;;;;;;;37.47;13.95;;;4.90;99.90;;;;;;5054973;28;20036;-56
2022/03/16 04:28:11;;;;;;;23.60;11.48;;;5.00;99.90;;;;;;5056416;28;20013;-49
2022/03/16 04:30:37;;;;;;;21.73;10.35;;;5.00;99.90;;;;;;5055175;28;20045;-50
2022/03/16 04:33:02;;;;;;;36.05;11.75;;;5.00;99.90;;;;;;5055156;28;20017;-51
2022/03/16 04:35:28;;;;;;;45.38;16.67;;;5.10;99.90;;;;;;5056273;28;20021;-50
2022/03/16 04:37:53;;;;;;;40.38;16.30;;;5.10;99.90;;;;;;5056199;28;20025;-57
2022/03/16 04:40:19;;;;;;;60.67;18.10;;;5.10;99.90;;;;;;5056150;28;20032;-53
2022/03/16 04:42:45;;;;;;;44.47;12.70;;;5.00;99.90;;;;;;5056465;28;20021;-51
2022/03/16 04:45:10;;;;;;;47.67;18.67;;;5.10;99.90;;;;;;5056045;28;20071;-54
2022/03/16 04:47:36;;;;;;;56.67;19.73;;;5.00;99.90;;;;;;5054640;28;20032;-50
2022/03/16 04:50:03;;;;;;;46.60;17.60;;;5.00;99.90;;;;;;5054747;28;20025;-53
2022/03/16 04:52:28;;;;;;;58.92;21.58;;;5.00;99.90;;;;;;5056188;28;20025;-55
2022/03/16 04:54:54;;;;;;;29.40;11.07;;;4.90;99.90;;;;;;5055860;28;20103;-56
2022/03/16 04:57:20;;;;;;;21.52;9.73;;;4.90;99.90;;;;;;5054789;28;20025;-52
2022/03/16 04:59:45;;;;;;;20.60;8.95;;;5.00;99.90;;;;;;5054578;28;20465;-53
2022/03/16 05:02:11;;;;;;;36.30;9.20;;;4.90;99.90;;;;;;5055069;28;20029;-50
2022/03/16 05:04:36;;;;;;;19.63;9.05;;;5.00;99.90;;;;;;5054472;28;20023;-51
2022/03/16 05:07:02;;;;;;;19.45;8.85;;;5.10;99.90;;;;;;5054293;28;20029;-54
2022/03/16 05:09:28;;;;;;;24.52;9.18;;;5.30;99.90;;;;;;5054424;28;20029;-50
2022/03/16 05:11:53;;;;;;;20.60;8.88;;;5.30;99.90;;;;;;5054291;28;20021;-52
2022/03/16 05:14:19;;;;;;;20.30;9.00;;;5.30;99.90;;;;;;5055778;28;20021;-50
2022/03/16 05:16:45;;;;;;;19.23;9.95;;;5.30;99.90;;;;;;5055520;28;20106;-50
2022/03/16 05:19:10;;;;;;;25.23;9.73;;;5.40;99.90;;;;;;5055062;28;20021;-52
2022/03/16 05:21:36;;;;;;;25.60;9.50;;;5.30;99.90;;;;;;5056184;28;20025;-52
2022/03/16 05:24:02;;;;;;;33.17;10.48;;;5.30;99.90;;;;;;5055607;28;20020;-52
2022/03/16 05:26:27;;;;;;;56.60;11.07;;;5.30;99.90;;;;;;5054979;28;20040;-51
2022/03/16 05:28:53;;;;;;;28.52;9.32;;;5.20;99.90;;;;;;5054938;28;20025;-50
2022/03/16 05:31:20;;;;;;;23.58;10.15;;;5.00;99.90;;;;;;5055212;28;20021;-50
2022/03/16 05:33:47;;;;;;;43.03;11.30;;;5.00;99.90;;;;;;5055105;28;20049;-53
2022/03/16 05:36:12;;;;;;;24.05;10.23;;;5.00;99.90;;;;;;5055228;28;20430;-52
2022/03/16 05:38:38;;;;;;;22.20;10.02;;;5.00;99.90;;;;;;5055326;28;20029;-55
2022/03/16 05:41:04;;;;;;;41.42;12.27;;;5.00;99.90;;;;;;5053718;28;20116;-53
2022/03/16 05:43:29;;;;;;;52.75;13.20;;;5.00;99.90;;;;;;5055269;28;20028;-49
2022/03/16 05:45:55;;;;;;;74.88;13.48;;;5.00;99.90;;;;;;5054921;28;20032;-48
2022/03/16 05:48:20;;;;;;;20.90;9.05;;;5.10;99.90;;;;;;5053978;28;20028;-52
2022/03/16 05:50:46;;;;;;;24.77;11.23;;;5.10;99.90;;;;;;5055179;28;20022;-48
2022/03/16 05:53:13;;;;;;;28.58;10.77;;;5.10;99.90;;;;;;5053532;28;20021;-54
2022/03/16 05:55:38;;;;;;;100.53;18.58;;;5.10;99.90;;;;;;5055032;28;20021;-52
2022/03/16 05:58:04;;;;;;;117.63;18.30;;;4.90;99.90;;;;;;5054773;28;20029;-53
2022/03/16 06:00:31;;;;;;;74.70;11.48;;;4.90;99.90;;;;;;5055245;28;20492;-53
2022/03/16 06:02:57;;;;;;;80.85;12.73;;;4.60;99.90;;;;;;5054690;28;20021;-52
2022/03/16 06:05:23;;;;;;;95.55;13.52;;;4.50;99.90;;;;;;5053243;28;20039;-49
2022/03/16 06:07:48;;;;;;;135.85;17.58;;;4.50;99.90;;;;;;5053540;28;20071;-54
2022/03/16 06:10:17;;;;;;;74.38;12.38;;;4.30;99.90;;;;;;5053322;28;20017;-48
2022/03/16 06:12:53;;;;;;;141.57;16.90;;;4.20;99.90;;;;;;5053795;28;20017;-48
2022/03/16 06:15:19;;;;;;;56.53;11.43;;;4.20;99.90;;;;;;5053797;28;20074;-49
2022/03/16 06:17:45;;;;;;;137.77;19.67;;;4.20;99.90;;;;;;5054271;28;20098;-48
2022/03/16 06:20:11;;;;;;;50.05;9.90;;;4.20;99.90;;;;;;5053431;28;20175;-48
2022/03/16 06:22:36;;;;;;;44.90;9.95;;;4.10;99.90;;;;;;5054284;28;20028;-48
2022/03/16 06:25:02;;;;;;;54.95;11.20;;;4.20;99.90;;;;;;5052884;28;20029;-48
2022/03/16 06:27:28;;;;;;;27.75;8.25;;;4.10;99.90;;;;;;5053188;28;20029;-47
2022/03/16 06:29:54;;;;;;;17.58;8.45;;;4.10;99.90;;;;;;5054097;28;20053;-48
2022/03/16 06:32:19;;;;;;;28.55;9.70;;;4.10;99.90;;;;;;5054176;28;20052;-48
2022/03/16 06:34:46;;;;;;;57.45;11.05;;;4.30;99.90;;;;;;5054119;28;20025;-48
2022/03/16 06:37:12;;;;;;;22.20;8.27;;;4.40;99.90;;;;;;5052711;28;20111;-49
2022/03/16 06:39:38;;;;;;;56.13;10.18;;;4.50;99.90;;;;;;5053928;28;20059;-50
2022/03/16 06:42:04;;;;;;;14.93;7.45;;;4.50;99.90;;;;;;5054394;28;20035;-48
2022/03/16 06:44:29;;;;;;;35.47;10.50;;;4.70;99.90;;;;;;5053802;28;20104;-49
2022/03/16 06:46:55;;;;;;;17.10;8.25;;;4.80;99.90;;;;;;5052382;28;20032;-49
2022/03/16 06:49:21;;;;;;;18.83;8.52;;;5.00;99.90;;;;;;5053753;28;20024;-49
2022/03/16 06:51:46;;;;;;;15.00;7.43;;;5.20;99.90;;;;;;5053784;28;20124;-48
2022/03/16 06:54:12;;;;;;;23.17;8.23;;;5.30;99.90;;;;;;5053692;28;20028;-48
2022/03/16 06:56:38;;;;;;;20.85;7.43;;;5.30;99.90;;;;;;5053687;28;20025;-48
2022/03/16 06:59:04;;;;;;;13.55;7.43;;;5.20;99.90;;;;;;5052287;28;20040;-48
2022/03/16 07:01:29;;;;;;;13.43;7.43;;;5.30;99.90;;;;;;5053527;28;20021;-50
2022/03/16 07:03:55;;;;;;;18.73;7.65;;;5.20;99.90;;;;;;5053540;28;20585;-48
2022/03/16 07:06:21;;;;;;;15.43;7.85;;;5.30;99.90;;;;;;5052126;28;20078;-48
2022/03/16 07:08:47;;;;;;;15.57;8.00;;;5.50;99.90;;;;;;5052359;28;20028;-49
2022/03/16 07:11:15;;;;;;;58.85;13.35;;;5.70;99.90;;;;;;5052227;28;20055;-48
2022/03/16 07:13:42;;;;;;;15.65;8.23;;;5.80;99.90;;;;;;5052292;28;20044;-47
2022/03/16 07:16:08;;;;;;;21.25;9.88;;;5.70;99.90;;;;;;5052180;28;20025;-48
2022/03/16 07:18:33;;;;;;;23.48;8.73;;;5.80;99.90;;;;;;5052146;28;20110;-49
2022/03/16 07:20:59;;;;;;;101.65;13.20;;;5.90;99.90;;;;;;5053990;28;20052;-48
2022/03/16 07:23:25;;;;;;;52.50;11.90;;;6.00;99.90;;;;;;5051830;28;20025;-48
2022/03/16 07:25:51;;;;;;;21.48;9.43;;;5.70;99.90;;;;;;5053228;28;20029;-51
2022/03/16 07:28:18;;;;;;;17.45;9.30;;;5.70;99.90;;;;;;5052009;28;20021;-50
2022/03/16 07:30:44;;;;;;;27.02;10.77;;;5.90;99.90;;;;;;5052746;28;20029;-48
2022/03/16 07:33:11;;;;;;;24.23;9.57;;;6.00;99.90;;;;;;5052216;28;20021;-50
2022/03/16 07:35:39;;;;;;;17.90;9.48;;;6.00;99.90;;;;;;5052458;28;20025;-48
2022/03/16 07:38:05;;;;;;;68.78;11.40;;;6.00;99.90;;;;;;5051953;28;20111;-47
2022/03/16 07:40:33;;;;;;;29.40;10.13;;;5.70;99.90;;;;;;5053210;28;20036;-49
2022/03/16 07:42:59;;;;;;;73.72;12.00;;;5.50;99.90;;;;;;5051905;28;20083;-47
2022/03/16 07:45:25;;;;;;;80.05;13.43;;;5.40;99.90;;;;;;5054396;28;20063;-47
2022/03/16 07:47:56;;;;;;;93.28;14.05;;;5.30;99.90;;;;;;5053064;28;20057;-49
2022/03/16 07:50:22;;;;;;;83.07;14.93;;;5.30;99.90;;;;;;5053458;28;20024;-49
2022/03/16 07:52:48;;;;;;;16.65;9.18;;;5.40;99.90;;;;;;5051830;28;20021;-51
2022/03/16 07:55:15;;;;;;;18.50;9.98;;;5.50;99.90;;;;;;5051737;28;20025;-48
2022/03/16 07:57:41;;;;;;;36.33;10.13;;;5.80;99.90;;;;;;5051989;28;20111;-47
2022/03/16 08:00:10;;;;;;;22.42;9.23;;;5.90;99.90;;;;;;5053025;28;20025;-48
2022/03/16 08:02:36;;;;;;;57.88;10.82;;;5.90;99.90;;;;;;5051644;28;20048;-48
2022/03/16 08:05:02;;;;;;;35.55;10.65;;;6.00;99.90;;;;;;5051644;28;20368;-48
2022/03/16 08:07:29;;;;;;;16.30;9.00;;;5.90;99.90;;;;;;5052729;28;20103;-49
2022/03/16 08:09:55;;;;;;;40.75;10.35;;;6.40;99.90;;;;;;5052821;28;20382;-47
2022/03/16 08:12:21;;;;;;;24.05;9.65;;;6.50;99.90;;;;;;5052806;28;20024;-49
2022/03/16 08:14:46;;;;;;;35.80;10.45;;;6.80;99.90;;;;;;5052818;28;20047;-51
2022/03/16 08:17:12;;;;;;;21.88;9.70;;;6.80;99.90;;;;;;5051731;28;20048;-48
2022/03/16 08:19:38;;;;;;;19.38;8.18;;;6.80;99.90;;;;;;5052710;28;20033;-47
2022/03/16 08:22:03;;;;;;;96.63;12.57;;;7.20;99.90;;;;;;5051507;28;20044;-50
2022/03/16 08:24:29;;;;;;;16.90;8.50;;;7.20;99.90;;;;;;5051785;28;20456;-51
2022/03/16 08:26:55;;;;;;;45.72;9.75;;;7.10;99.90;;;;;;5052930;28;20033;-48
2022/03/16 08:29:20;;;;;;;35.72;10.10;;;6.90;99.90;;;;;;5051940;28;20021;-49
2022/03/16 08:31:46;;;;;;;52.00;8.75;;;6.70;99.90;;;;;;5051359;28;20017;-51
2022/03/16 08:34:11;;;;;;;23.25;8.68;;;6.50;99.90;;;;;;5051480;28;20094;-53
2022/03/16 08:36:39;;;;;;;22.77;9.95;;;6.50;99.90;;;;;;5054483;28;20021;-49
2022/03/16 08:39:05;;;;;;;41.55;9.00;;;6.50;99.90;;;;;;5055038;28;20029;-48
2022/03/16 08:41:32;;;;;;;34.03;9.38;;;6.60;99.90;;;;;;5056188;28;20021;-46
2022/03/16 08:43:58;;;;;;;33.10;9.23;;;6.70;99.90;;;;;;5056448;28;20128;-50
2022/03/16 08:46:24;;;;;;;17.58;9.82;;;6.80;99.90;;;;;;5055949;28;20029;-49
2022/03/16 08:48:50;;;;;;;35.80;11.05;;;6.90;99.90;;;;;;5054852;28;20033;-47
2022/03/16 08:51:15;;;;;;;28.83;9.27;;;7.20;99.90;;;;;;5055124;28;20025;-47
2022/03/16 08:53:41;;;;;;;16.42;8.90;;;7.40;99.90;;;;;;5054753;28;20025;-47
2022/03/16 08:56:06;;;;;;;17.52;8.60;;;7.70;99.90;;;;;;5055841;28;20055;-52
2022/03/16 08:58:33;;;;;;;17.33;9.15;;;8.00;99.90;;;;;;5055950;28;20029;-48
2022/03/16 09:00:58;;;;;;;14.63;8.73;;;8.10;99.90;;;;;;5056164;28;20021;-50
2022/03/16 09:03:24;;;;;;;13.60;7.82;;;8.20;99.90;;;;;;5054620;28;20028;-51
2022/03/16 09:05:52;;;;;;;17.20;9.05;;;8.40;99.90;;;;;;5054270;28;20028;-47
2022/03/16 09:08:18;;;;;;;16.40;9.20;;;8.60;99.90;;;;;;5055721;28;20025;-51
2022/03/16 09:10:45;;;;;;;15.70;8.38;;;8.70;99.90;;;;;;5054756;28;20025;-48
2022/03/16 09:13:10;;;;;;;14.30;8.32;;;9.40;99.90;;;;;;5055890;28;20455;-47
2022/03/16 09:15:36;;;;;;;15.93;8.45;;;10.50;99.90;;;;;;5054202;28;20049;-47
2022/03/16 09:18:02;;;;;;;11.23;7.47;;;11.90;99.90;;;;;;5054309;28;20032;-48
2022/03/16 09:20:28;;;;;;;15.77;8.95;;;12.90;99.90;;;;;;5055795;28;20029;-47
2022/03/16 09:22:54;;;;;;;15.85;9.68;;;13.40;99.90;;;;;;5054262;28;20488;-48
2022/03/16 09:25:24;;;;;;;15.25;10.20;;;13.30;99.90;;;;;;5053979;28;20037;-49
2022/03/16 09:27:49;;;;;;;15.10;9.85;;;13.00;99.90;;;;;;5055244;28;20021;-48
2022/03/16 09:30:15;;;;;;;18.67;9.98;;;12.80;99.90;;;;;;5054044;28;20021;-48
2022/03/16 09:32:41;;;;;;;13.73;8.23;;;12.50;99.90;;;;;;5055236;28;20108;-49
2022/03/16 09:35:06;;;;;;;17.90;9.35;;;12.30;99.90;;;;;;5053991;28;20025;-51
2022/03/16 09:37:33;;;;;;;18.27;9.43;;;12.10;99.90;;;;;;5055373;28;20021;-49
2022/03/16 09:39:58;;;;;;;17.83;10.13;;;12.10;99.90;;;;;;5055154;28;20036;-47
2022/03/16 09:42:25;;;;;;;17.58;10.70;;;12.00;99.90;;;;;;5053831;28;20029;-46
2022/03/16 09:44:53;;;;;;;19.60;11.30;;;11.60;99.90;;;;;;5055354;28;20052;-47
2022/03/16 09:47:22;;;;;;;18.85;10.57;;;11.40;99.90;;;;;;5054777;28;20025;-47
2022/03/16 09:49:48;;;;;;;19.88;10.75;;;11.60;99.90;;;;;;5053647;28;20025;-48
2022/03/16 09:52:14;;;;;;;19.30;11.27;;;11.70;99.90;;;;;;5054878;28;20032;-47
2022/03/16 09:54:41;;;;;;;20.05;11.20;;;11.80;99.90;;;;;;5054872;28;20472;-48
2022/03/16 09:57:06;;;;;;;15.07;9.60;;;11.60;99.90;;;;;;5053823;28;20081;-47
2022/03/16 09:59:32;;;;;;;18.98;10.90;;;12.00;99.90;;;;;;5054752;28;20021;-47
2022/03/16 10:01:59;;;;;;;18.23;10.70;;;12.30;99.90;;;;;;5053486;28;20072;-47
2022/03/16 10:04:36;;;;;;;19.40;10.38;;;12.50;99.90;;;;;;5053467;28;20175;-47
2022/03/16 10:07:05;;;;;;;16.17;9.98;;;13.10;99.90;;;;;;5053261;28;20047;-47
2022/03/16 10:15:18;;;;;;;15.70;9.73;;;13.40;99.90;;;;;;5055071;28;20658;-46
2022/03/16 10:17:48;;;;;;;21.25;11.27;;;13.70;99.90;;;;;;5054573;28;20028;-47
2022/03/16 10:20:34;;;;;;;17.33;10.45;;;13.80;99.90;;;;;;5053431;28;20052;-49
2022/03/16 10:23:05;;;;;;;18.95;10.13;;;14.20;99.90;;;;;;5054297;28;20100;-46
2022/03/16 10:25:52;;;;;;;17.85;9.85;;;14.00;99.90;;;;;;5054008;28;20055;-47
2022/03/16 10:28:19;;;;;;;21.42;10.10;;;13.40;99.90;;;;;;5052332;28;20407;-48
2022/03/16 10:30:57;;;;;;;18.00;10.68;;;13.00;99.90;;;;;;5052891;28;20086;-50
2022/03/16 10:33:33;;;;;;;19.48;9.55;;;12.80;99.90;;;;;;5054163;28;20028;-50
2022/03/16 10:36:09;;;;;;;18.00;10.55;;;12.80;99.90;;;;;;5052694;28;20051;-48
2022/03/16 10:38:46;;;;;;;16.50;9.55;;;12.50;99.90;;;;;;5053961;28;20029;-51
2022/03/16 10:47:18;;;;;;;20.13;10.68;;;12.30;99.90;;;;;;5053799;28;20035;-53
2022/03/16 10:49:45;;;;;;;20.42;10.18;;;12.00;99.90;;;;;;5054144;28;20043;-52
2022/03/16 10:52:15;;;;;;;19.98;9.70;;;12.00;99.90;;;;;;5054007;28;20040;-53
2022/03/16 10:54:42;;;;;;;17.08;9.85;;;12.30;99.90;;;;;;5054620;28;20427;-46
2022/03/16 10:57:13;;;;;;;22.25;10.55;;;12.30;99.90;;;;;;5053596;28;20108;-48
2022/03/16 10:59:42;;;;;;;19.75;11.15;;;12.00;99.90;;;;;;5053124;28;20021;-47
2022/03/16 11:02:12;;;;;;;20.60;10.75;;;11.90;99.90;;;;;;5053600;28;20376;-48
2022/03/16 11:04:39;;;;;;;17.85;10.60;;;11.80;99.90;;;;;;5052423;28;20025;-47
2022/03/16 11:07:06;;;;;;;19.55;10.18;;;11.70;99.90;;;;;;5052104;28;20017;-49
2022/03/16 11:09:34;;;;;;;23.27;10.65;;;11.70;99.90;;;;;;5052234;28;20029;-48
2022/03/16 11:14:47;;;;;;;21.80;11.10;;;11.30;99.90;;;;;;5053693;28;20040;-46
2022/03/16 11:17:14;;;;;;;20.73;10.00;;;11.40;99.90;;;;;;5053380;28;20091;-47
2022/03/16 11:19:44;;;;;;;22.80;11.45;;;11.60;99.90;;;;;;5053514;28;20393;-48
2022/03/16 11:22:14;;;;;;;22.95;11.60;;;11.40;99.90;;;;;;5052101;28;20029;-47
2022/03/16 11:25:00;;;;;;;18.15;9.55;;;11.60;99.90;;;;;;5053293;28;20029;-47
2022/03/16 11:27:34;;;;;;;18.48;11.13;;;12.00;99.90;;;;;;5053203;28;20021;-48
2022/03/16 11:30:35;;;;;;;20.20;10.60;;;12.40;99.90;;;;;;5053251;28;20028;-48
2022/03/16 11:33:04;;;;;;;23.17;11.43;;;12.40;99.90;;;;;;5051955;28;20021;-47
2022/03/16 11:35:35;;;;;;;22.17;12.20;;;12.40;99.90;;;;;;5053137;28;20086;-46
2022/03/16 11:38:11;;;;;;;18.15;10.80;;;12.40;99.90;;;;;;5051987;28;20060;-49
2022/03/16 11:40:44;;;;;;;17.45;10.20;;;12.50;99.90;;;;;;5053424;28;20028;-53
2022/03/16 11:43:19;;;;;;;21.08;10.23;;;12.30;99.90;;;;;;5052279;28;20025;-49
2022/03/16 11:45:50;;;;;;;22.23;11.05;;;12.30;99.90;;;;;;5052128;28;20032;-52
2022/03/16 11:48:37;;;;;;;21.98;11.25;;;12.40;99.90;;;;;;5053349;28;20033;-47
2022/03/16 11:51:08;;;;;;;20.77;11.25;;;12.40;99.90;;;;;;5051882;28;20025;-53
2022/03/16 11:53:57;;;;;;;22.85;12.00;;;12.50;99.90;;;;;;5053107;28;20025;-46
2022/03/16 11:56:42;;;;;;;25.95;11.82;;;12.30;99.90;;;;;;5052937;28;20024;-46
2022/03/16 11:59:28;;;;;;;21.67;11.45;;;12.10;99.90;;;;;;5051842;28;20080;-47
2022/03/16 12:02:10;;;;;;;16.98;9.43;;;12.10;99.90;;;;;;5051824;28;20096;-49
2022/03/16 12:04:42;;;;;;;21.58;11.38;;;12.10;99.90;;;;;;5052353;28;20033;-47
2022/03/16 12:07:09;;;;;;;;;;;12.10;99.90;;;;;;5052674;28;20112;-52
2022/03/16 12:09:40;;;;;;;20.90;11.38;;;12.00;99.90;;;;;;5051680;28;19924;-47
2022/03/16 12:15:12;;;;;;;20.85;11.68;;;12.00;99.90;;;;;;5056738;28;20032;-49
2022/03/16 12:18:01;;;;;;;19.00;11.18;;;12.00;99.90;;;;;;5056861;28;20025;-47
2022/03/16 12:20:34;;;;;;;20.58;11.52;;;12.10;99.90;;;;;;5055191;28;20021;-47
2022/03/16 12:23:07;;;;;;;21.38;11.10;;;12.10;99.90;;;;;;5056687;28;20057;-48
2022/03/16 12:25:34;;;;;;;20.35;11.90;;;12.20;99.90;;;;;;5055660;28;20055;-49
2022/03/16 12:31:00;;;;;;;23.23;11.45;;;12.20;99.90;;;;;;5056989;28;20112;-47
2022/03/16 12:33:28;;;;;;;20.90;11.88;;;12.30;99.90;;;;;;5056471;28;20036;-47
2022/03/16 12:35:54;;;;;;;21.05;10.73;;;12.40;99.90;;;;;;5056273;28;20368;-50
2022/03/16 12:38:21;;;;;;;21.77;11.15;;;12.50;99.90;;;;;;5055106;28;20032;-47
2022/03/16 12:43:33;;;;;;;21.05;11.32;;;12.30;99.90;;;;;;5056841;28;20051;-47
2022/03/16 12:46:12;;;;;;;20.30;10.32;;;12.20;99.90;;;;;;5054649;28;20059;-47
2022/03/16 12:48:38;;;;;;;24.77;12.48;;;12.20;99.90;;;;;;5056089;28;20035;-47
2022/03/16 12:54:32;;;;;;;22.75;11.18;;;12.30;99.90;;;;;;5056031;28;20048;-47
2022/03/16 12:57:09;;;;;;;19.58;10.98;;;12.50;99.90;;;;;;5054609;28;20032;-48
2022/03/16 12:59:38;;;;;;;24.75;11.13;;;12.70;99.90;;;;;;5055988;28;20104;-47
2022/03/16 13:02:12;;;;;;;20.52;11.90;;;12.90;99.90;;;;;;5054640;28;20434;-47
2022/03/16 13:04:38;;;;;;;20.02;11.25;;;13.10;99.90;;;;;;5055492;28;20111;-47